In Rescue
 
Open Full Screen Window  High Contrast Mode
Wind Gusting 00 knots
16
November 29, 2022 9:06 AM CST
Weather Information
Wind Direction
  350 °
Wind Speed
  16 kt (18 mph)
Wind Gust
  00 kt (0 mph)
Altimeter
29.77 in
Visibility
10 SM
Temperature
-06° C
21° F
Dewpoint
-12° C
10° F
Humidity
63%
1hr Rain Fall
00.00 in.
24hr Rain Fall
00.01 in.
Sky Condition
Missing
VFR

METAR KAQP 291506Z AUTO 35016KT 10SM M06/M12 A2977 RMK AO2 TSNO

FAA Disclaimer: The data displayed is for advisory purposes only and is not to be used for flight planning or operations.
Missing Cloud Data